bnet.cn alexa rank chart, bnet.cn alexa rank daily changes

bnet.cn alexa rank chart, bnet.cn alexa rank daily changes

bnet.cn
Actual rank:
471 009

RANK HISTORY

Date Rank Diff
2017/10/17 471 009 -1 577
2017/10/16 472 586 +71 445
2017/10/14 401 141 -500
2017/10/13 401 641 -44 281
2017/10/12 445 922 +1 380
2017/10/11 444 542 +1 296
2017/10/10 443 246 -109 404
2017/10/09 552 650 -2 713
2017/10/08 555 363 -1 206
2017/10/07 556 569 -1 007
2017/10/06 557 576 -452
2017/10/05 558 028 +1 571
2017/10/04 556 457 +1 505
2017/10/03 554 952 -1 617
2017/10/02 556 569 -2 395
2017/10/01 558 964 -129 981
2017/09/30 688 945 -183 698
2017/09/29 872 643 +3 899
2017/09/28 868 744 +4 865
2017/09/27 863 879 +1 974
2017/09/26 861 905 -3 186
2017/09/25 865 091 -52 662
2017/09/22 917 753 +20 945
2017/09/20 896 808 +231 638
2017/09/19 665 170 -2 166
2017/09/18 667 336 -2 379
2017/09/17 669 715 -106
2017/09/16 669 821 +564
2017/09/15 669 257 -245 839
2017/09/14 915 096 +6 687
2017/09/13 908 409 +3 114
2017/09/12 905 295 -3 226
2017/09/11 908 521 -4 285
2017/09/10 912 806 +444 492
2017/09/09 468 314 -24
2017/09/08 468 338 +2 226
2017/09/07 466 112 +2 504
2017/09/06 463 608 +71 379
2017/09/05 392 229 -1 372
2017/09/04 393 601 +43 924
2017/09/03 349 677 +37 863
2017/09/02 311 814 -188
2017/09/01 312 002 +1 652
2017/08/31 310 350 +1 508
2017/08/30 308 842 +800
2017/08/29 308 042 -1 098
2017/08/28 309 140 -1 328
2017/08/27 310 468 -751
2017/08/26 311 219 -319
2017/08/25 311 538 +1 125
2017/08/24 310 413 +32 622
2017/08/23 277 791 +418
2017/08/22 277 373 -29 859
2017/08/21 307 232 -3 030
2017/08/20 310 262 -34 062
2017/08/19 344 324 +35 286
2017/08/18 309 038

WIDGET FOR YOUR SITE

DOMAINS WITH THE NEAREST RANK

Domain Rank
20ans-cite-espace.com 471 004
proxybay.github.io 471 005
omojuwa.com 471 006
mueller.hr 471 007
live-production.tv 471 008
bnet.cn 471 009
abc57.com 471 010
syntecx.org 471 011
sexrelatos.com 471 012
readezarchive.com 471 013
prix-elec.com 471 014

DOMAINS WITH THE NEAREST RANK BY TLD .cn

Domain Rank
szgoodtech.cn 469 877
cioe.cn 469 953
hisense.cn 470 005
singlewindow.cn 470 037
the1970s.cn 470 933
bnet.cn 471 009
3g.cn 471 057
lyzlk.cn 471 086
yjzbtb.cn 471 180
masar.cn 471 327
weilaijiaoyu.cn 471 693